createdAt,value
2024-03-26T00:00:02.448Z,0
2024-03-26T00:16:01.822Z,0
2024-03-26T00:31:03.503Z,0
2024-03-26T00:46:03.951Z,0
2024-03-26T01:00:04.736Z,0
2024-03-26T01:16:05.730Z,0
2024-03-26T01:31:02.041Z,0
2024-03-26T01:46:01.893Z,0
2024-03-26T02:00:02.557Z,0
2024-03-26T02:16:03.255Z,0
2024-03-26T02:31:04.081Z,0
2024-03-26T02:46:04.429Z,0
2024-03-26T03:00:05.208Z,0
2024-03-26T03:16:06.241Z,0
2024-03-26T03:31:02.087Z,0
2024-03-26T03:46:02.631Z,0
2024-03-26T04:00:03.378Z,0
2024-03-26T04:16:03.989Z,0
2024-03-26T04:31:04.819Z,0
2024-03-26T04:46:05.355Z,0
2024-03-26T05:00:01.477Z,0
2024-03-26T05:16:05.472Z,9
2024-03-26T05:31:02.513Z,23
2024-03-26T05:46:03.467Z,36
2024-03-26T06:00:04.066Z,49
2024-03-26T06:16:04.765Z,69
2024-03-26T06:31:05.250Z,88
2024-03-26T06:46:06.229Z,114
2024-03-26T07:00:01.858Z,161
2024-03-26T07:16:02.460Z,301
2024-03-26T07:31:03.180Z,352
2024-03-26T07:46:03.584Z,395
2024-03-26T08:00:03.960Z,429
2024-03-26T08:16:04.689Z,464
2024-03-26T08:31:05.463Z,508
2024-03-26T08:46:06.419Z,461
2024-03-26T09:00:01.847Z,519
2024-03-26T09:16:02.222Z,592
2024-03-26T09:31:02.975Z,513
2024-03-26T09:46:03.344Z,572
2024-03-26T10:00:04.217Z,684
2024-03-26T10:16:05.013Z,683
2024-03-26T10:31:05.693Z,608
2024-03-26T10:46:07.936Z,355
2024-03-26T11:00:02.117Z,388
2024-03-26T11:16:02.633Z,343
2024-03-26T11:31:03.236Z,462
2024-03-26T11:46:03.551Z,353
2024-03-26T12:00:04.046Z,370
2024-03-26T12:16:04.999Z,439
2024-03-26T12:31:05.579Z,469
2024-03-26T12:46:01.378Z,516
2024-03-26T13:00:02.620Z,285
2024-03-26T13:16:03.275Z,293
2024-03-26T13:31:04.151Z,217
2024-03-26T13:46:04.642Z,189
2024-03-26T14:00:04.974Z,138
2024-03-26T14:16:06.058Z,105
2024-03-26T14:31:01.911Z,148
2024-03-26T14:46:02.373Z,64
2024-03-26T15:00:03.244Z,39
2024-03-26T15:16:14.623Z,82
2024-03-26T15:31:04.553Z,83
2024-03-26T15:46:04.803Z,80
2024-03-26T16:00:05.446Z,65
2024-03-26T16:16:04.053Z,58
2024-03-26T16:31:01.718Z,60
2024-03-26T16:46:02.845Z,60
2024-03-26T17:00:03.371Z,34
2024-03-26T17:16:01.334Z,16
2024-03-26T17:31:04.675Z,3
2024-03-26T17:46:05.292Z,0
2024-03-26T18:00:06.053Z,0
2024-03-26T18:16:02.047Z,0
2024-03-26T18:31:02.531Z,0
2024-03-26T18:46:03.136Z,0
2024-03-26T19:00:03.871Z,0
2024-03-26T19:16:04.418Z,0
2024-03-26T19:31:05.015Z,0
2024-03-26T19:46:05.934Z,0
2024-03-26T20:00:01.882Z,0
2024-03-26T20:16:02.932Z,0
2024-03-26T20:31:12.027Z,0
2024-03-26T20:46:04.188Z,0
2024-03-26T21:00:04.861Z,0
2024-03-26T21:16:05.774Z,0
2024-03-26T21:31:01.507Z,0
2024-03-26T21:46:01.916Z,0
2024-03-26T22:00:02.702Z,0
2024-03-26T22:16:03.377Z,0
2024-03-26T22:31:03.411Z,0
2024-03-26T22:46:04.890Z,0
2024-03-26T23:00:05.349Z,0
2024-03-26T23:16:00.506Z,0
2024-03-26T23:31:01.653Z,0
2024-03-26T23:46:02.572Z,0
